sensor_id;sensor_type;location;lat;lon;timestamp;pressure;altitude;pressure_sealevel;temperature;humidity
39083;BME280;24834;44.444;26.098;2022-12-16T00:04:22;100627.16;;;7.48;
39083;BME280;24834;44.444;26.098;2022-12-16T00:10:26;100629.56;;;7.55;
39083;BME280;24834;44.444;26.098;2022-12-16T00:16:48;100617.72;;;7.47;
39083;BME280;24834;44.444;26.098;2022-12-16T00:22:51;100615.81;;;7.06;
39083;BME280;24834;44.444;26.098;2022-12-16T00:28:53;100620.63;;;7.19;
39083;BME280;24834;44.444;26.098;2022-12-16T00:34:57;100613.81;;;7.18;
39083;BME280;24834;44.444;26.098;2022-12-16T00:41:00;100616.75;;;7.26;
39083;BME280;24834;44.444;26.098;2022-12-16T00:47:02;100622.09;;;7.10;
39083;BME280;24834;44.444;26.098;2022-12-16T00:53:05;100607.44;;;7.09;
39083;BME280;24834;44.444;26.098;2022-12-16T00:59:07;100610.09;;;6.87;
39083;BME280;24834;44.444;26.098;2022-12-16T01:05:11;100587.84;;;6.84;
39083;BME280;24834;44.444;26.098;2022-12-16T01:11:15;100576.91;;;6.87;
39083;BME280;24834;44.444;26.098;2022-12-16T01:17:17;100596.44;;;7.07;
39083;BME280;24834;44.444;26.098;2022-12-16T01:23:20;100562.66;;;6.73;
39083;BME280;24834;44.444;26.098;2022-12-16T01:29:23;100551.63;;;6.44;
39083;BME280;24834;44.444;26.098;2022-12-16T01:35:26;100556.00;;;6.39;
39083;BME280;24834;44.444;26.098;2022-12-16T01:41:48;100564.63;;;6.39;
39083;BME280;24834;44.444;26.098;2022-12-16T01:47:53;100580.56;;;6.43;
39083;BME280;24834;44.444;26.098;2022-12-16T01:54:13;100572.16;;;6.58;
39083;BME280;24834;44.444;26.098;2022-12-16T02:00:17;100584.63;;;6.56;
39083;BME280;24834;44.444;26.098;2022-12-16T02:06:21;100586.88;;;6.47;
39083;BME280;24834;44.444;26.098;2022-12-16T02:12:58;100595.00;;;6.67;
39083;BME280;24834;44.444;26.098;2022-12-16T02:32:28;100574.25;;;6.61;
39083;BME280;24834;44.444;26.098;2022-12-16T02:38:58;100564.53;;;6.13;
39083;BME280;24834;44.444;26.098;2022-12-16T02:45:16;100543.66;;;6.13;
39083;BME280;24834;44.444;26.098;2022-12-16T02:51:19;100534.06;;;5.96;
39083;BME280;24834;44.444;26.098;2022-12-16T03:03:50;100532.31;;;5.85;
39083;BME280;24834;44.444;26.098;2022-12-16T03:09:56;100531.56;;;5.85;
39083;BME280;24834;44.444;26.098;2022-12-16T03:16:01;100521.06;;;6.01;
39083;BME280;24834;44.444;26.098;2022-12-16T03:22:16;100513.09;;;5.91;
39083;BME280;24834;44.444;26.098;2022-12-16T03:28:40;100494.69;;;5.81;
39083;BME280;24834;44.444;26.098;2022-12-16T03:34:51;100478.06;;;5.87;
39083;BME280;24834;44.444;26.098;2022-12-16T03:40:54;100509.44;;;5.92;
39083;BME280;24834;44.444;26.098;2022-12-16T03:46:57;100502.06;;;6.06;
39083;BME280;24834;44.444;26.098;2022-12-16T03:53:00;100508.72;;;6.14;
39083;BME280;24834;44.444;26.098;2022-12-16T03:59:02;100500.00;;;6.30;
39083;BME280;24834;44.444;26.098;2022-12-16T04:05:04;100476.81;;;5.90;
39083;BME280;24834;44.444;26.098;2022-12-16T04:11:07;100498.19;;;6.09;
39083;BME280;24834;44.444;26.098;2022-12-16T04:17:29;100496.56;;;6.02;
39083;BME280;24834;44.444;26.098;2022-12-16T04:23:54;100497.34;;;6.03;
39083;BME280;24834;44.444;26.098;2022-12-16T04:30:37;100502.56;;;6.03;
39083;BME280;24834;44.444;26.098;2022-12-16T04:36:40;100511.09;;;5.98;
39083;BME280;24834;44.444;26.098;2022-12-16T04:43:00;100523.75;;;6.06;
39083;BME280;24834;44.444;26.098;2022-12-16T04:49:22;100514.81;;;6.24;
39083;BME280;24834;44.444;26.098;2022-12-16T04:55:43;100489.13;;;5.94;
39083;BME280;24834;44.444;26.098;2022-12-16T05:02:08;100501.66;;;5.76;
